Time;durP1;ratioP1;P1;durP2;ratioP2;P2;SDS_P1;SDS_P2;PMS_P1;PMS_P2;Temp;Humidity;BMP_temperature;BMP_pressure;BME280_temperature;BME280_humidity;BME280_pressure;Samples;Min_cycle;Max_cycle;Signal;HPM_P1;HPM_P2
2022/11/05 01:14:39;;;;;;;19.90;10.30;;;19.90;30.80;;;;;;5086619;28;20470;-60
2022/11/05 01:17:06;;;;;;;18.35;8.25;;;19.80;31.40;;;;;;5065657;28;20172;-63
2022/11/05 01:19:32;;;;;;;20.63;5.20;;;19.70;32.00;;;;;;5066589;28;20094;-60
2022/11/05 01:21:59;;;;;;;15.93;4.25;;;19.50;32.30;;;;;;5065233;28;20081;-59
2022/11/05 01:24:25;;;;;;;21.88;4.65;;;19.40;31.90;;;;;;5074339;28;20073;-63
2022/11/05 01:26:51;;;;;;;20.35;4.53;;;19.30;32.60;;;;;;5063297;28;20157;-63
2022/11/05 01:29:18;;;;;;;25.83;5.30;;;19.20;32.50;;;;;;5062883;28;20127;-61
2022/11/05 01:31:45;;;;;;;18.60;4.45;;;19.20;33.10;;;;;;5062678;28;20291;-57
2022/11/05 01:34:11;;;;;;;24.77;4.25;;;19.20;33.60;;;;;;5061067;28;20081;-57
2022/11/05 01:36:37;;;;;;;20.83;4.50;;;19.10;33.90;;;;;;5062995;28;20069;-60
2022/11/05 01:39:04;;;;;;;25.92;4.57;;;19.00;34.30;;;;;;5062991;28;20070;-61
2022/11/05 01:41:30;;;;;;;23.90;5.18;;;18.80;34.40;;;;;;5066054;28;20073;-60
2022/11/05 01:43:58;;;;;;;24.45;4.18;;;18.80;35.90;;;;;;5070005;28;20081;-63
2022/11/05 01:46:34;;;;;;;34.22;4.55;;;18.80;35.90;;;;;;5070743;28;20088;-60
2022/11/05 01:49:19;;;;;;;28.10;6.35;;;18.80;36.00;;;;;;5064161;28;20147;-63
2022/11/05 01:51:45;;;;;;;19.73;5.18;;;18.60;36.20;;;;;;5062441;28;20134;-59
2022/11/05 01:54:16;;;;;;;24.02;5.85;;;18.50;35.60;;;;;;5064313;28;20088;-64
2022/11/05 01:56:53;;;;;;;25.50;5.68;;;18.40;36.20;;;;;;5064216;28;20070;-60
2022/11/05 01:59:35;;;;;;;25.35;5.60;;;18.30;37.00;;;;;;5063183;28;20081;-61
2022/11/05 02:02:02;;;;;;;21.55;4.55;;;18.40;37.30;;;;;;5062592;28;20113;-60
2022/11/05 02:04:38;;;;;;;16.30;4.25;;;18.30;37.70;;;;;;5064792;28;20505;-60
2022/11/05 02:07:06;;;;;;;24.42;4.50;;;18.20;37.80;;;;;;5064448;28;20174;-58
2022/11/05 02:09:41;;;;;;;21.10;5.65;;;18.10;37.60;;;;;;5073860;28;20441;-63
2022/11/05 02:12:09;;;;;;;27.48;4.68;;;18.10;38.10;;;;;;5065879;28;20115;-62
2022/11/05 02:14:36;;;;;;;17.08;4.85;;;18.00;38.00;;;;;;5070568;28;20151;-58
2022/11/05 02:17:17;;;;;;;23.40;5.38;;;17.90;38.40;;;;;;5065844;28;20065;-55
2022/11/05 02:20:09;;;;;;;25.58;5.60;;;17.90;38.70;;;;;;5065692;28;20167;-58
2022/11/05 02:22:43;;;;;;;21.85;5.10;;;17.80;36.80;;;;;;5065250;28;20119;-58
2022/11/05 02:25:40;;;;;;;26.50;5.57;;;17.80;37.60;;;;;;5056332;28;20452;-59
2022/11/05 02:28:09;;;;;;;24.23;5.45;;;17.70;37.20;;;;;;5057731;28;20162;-57
2022/11/05 02:30:45;;;;;;;31.10;6.55;;;17.60;37.90;;;;;;5061969;28;20097;-57
2022/11/05 02:33:42;;;;;;;23.02;5.82;;;17.60;38.10;;;;;;5051719;28;20089;-60
2022/11/05 02:36:30;;;;;;;40.23;8.10;;;17.50;38.80;;;;;;5050187;28;20092;-58
2022/11/05 02:39:21;;;;;;;56.65;8.63;;;17.50;38.80;;;;;;5053070;28;20070;-59
2022/11/05 02:42:04;;;;;;;47.83;8.30;;;17.50;38.60;;;;;;5052190;28;20090;-60
2022/11/05 02:45:01;;;;;;;42.63;8.30;;;17.50;38.20;;;;;;5049777;28;20073;-58
2022/11/05 02:47:45;;;;;;;39.08;7.90;;;17.40;38.30;;;;;;5052123;28;20108;-58
2022/11/05 02:50:14;;;;;;;27.98;7.40;;;17.40;39.60;;;;;;5060814;28;20538;-61
2022/11/05 02:52:55;;;;;;;32.10;8.82;;;17.40;40.60;;;;;;5051231;28;20466;-58
2022/11/05 02:55:41;;;;;;;39.78;9.57;;;17.30;39.90;;;;;;5051755;28;20601;-58
2022/11/05 02:58:08;;;;;;;47.97;8.45;;;17.30;40.20;;;;;;5044816;28;20077;-58
2022/11/05 03:00:57;;;;;;;38.72;9.50;;;17.30;39.60;;;;;;5051337;28;20164;-58
2022/11/05 03:03:47;;;;;;;40.05;10.57;;;17.20;39.30;;;;;;5050317;28;20527;-59
2022/11/05 03:06:33;;;;;;;49.53;15.10;;;17.20;39.40;;;;;;5050862;28;20100;-62
2022/11/05 03:09:00;;;;;;;59.15;15.70;;;17.10;39.20;;;;;;5048652;28;20065;-58
2022/11/05 03:11:30;;;;;;;49.05;16.42;;;17.10;40.70;;;;;;5051659;28;20778;-57
2022/11/05 03:14:20;;;;;;;57.65;14.75;;;17.10;40.60;;;;;;5049623;28;20121;-59
2022/11/05 03:17:14;;;;;;;58.83;13.77;;;17.10;41.20;;;;;;5048546;28;20065;-62
2022/11/05 03:20:19;;;;;;;55.47;12.82;;;17.00;41.30;;;;;;5052166;28;20073;-60
2022/11/05 03:23:05;;;;;;;53.22;14.15;;;17.00;40.80;;;;;;5022538;28;20109;-59
2022/11/05 03:25:49;;;;;;;59.65;13.73;;;16.90;40.60;;;;;;5004817;28;20125;-59
2022/11/05 03:28:19;;;;;;;49.05;12.13;;;16.90;40.80;;;;;;5004733;28;20077;-60
2022/11/05 03:30:47;;;;;;;50.22;10.93;;;17.00;41.70;;;;;;5005054;28;20078;-60
2022/11/05 03:33:22;;;;;;;49.58;15.50;;;17.00;40.00;;;;;;4991782;28;21597;-57
2022/11/05 03:35:55;;;;;;;69.57;21.13;;;16.90;40.60;;;;;;5004312;28;20531;-59
2022/11/05 03:38:27;;;;;;;68.55;23.73;;;16.80;41.00;;;;;;5007655;28;20090;-62
2022/11/05 03:40:59;;;;;;;71.40;22.98;;;16.90;41.70;;;;;;4999778;28;20079;-62
2022/11/05 03:43:31;;;;;;;69.13;20.13;;;16.80;41.30;;;;;;5008610;28;20491;-63
2022/11/05 03:46:23;;;;;;;74.15;20.38;;;16.80;42.00;;;;;;5007637;28;20085;-61
2022/11/05 03:48:54;;;;;;;69.32;19.60;;;16.80;41.80;;;;;;5008782;28;20507;-58
2022/11/05 03:51:29;;;;;;;72.25;19.45;;;16.80;42.30;;;;;;5007471;28;20126;-63
2022/11/05 03:53:59;;;;;;;73.20;19.80;;;16.70;42.40;;;;;;4990781;28;20209;-61
2022/11/05 03:56:54;;;;;;;98.90;21.30;;;16.60;43.10;;;;;;5020408;28;20072;-58
2022/11/05 03:59:21;;;;;;;80.20;18.80;;;16.50;42.10;;;;;;5034031;28;20089;-57
2022/11/05 04:01:48;;;;;;;72.90;17.65;;;16.50;41.80;;;;;;5050358;28;20066;-62
2022/11/05 04:04:15;;;;;;;84.95;16.13;;;16.50;42.40;;;;;;5049712;28;20092;-62
2022/11/05 04:14:55;;;;;;;106.97;18.45;;;16.40;41.30;;;;;;5049853;28;20199;-60
2022/11/05 04:17:21;;;;;;;;;;;16.40;41.80;;;;;;5048163;28;20074;-64
2022/11/05 04:25:20;;;;;;;87.28;21.40;;;16.30;44.50;;;;;;5049097;28;20099;-61
2022/11/05 04:27:47;;;;;;;111.03;27.27;;;16.30;43.10;;;;;;5049994;28;20073;-63
2022/11/05 04:30:19;;;;;;;110.25;28.65;;;16.20;42.90;;;;;;5049406;28;20165;-62
2022/11/05 04:33:28;;;;;;;112.68;30.80;;;16.20;42.60;;;;;;5055855;28;22057;-62
2022/11/05 04:35:54;;;;;;;104.30;26.58;;;16.20;43.50;;;;;;5026191;28;20106;-62
2022/11/05 04:38:20;;;;;;;;;;;16.20;42.80;;;;;;5027789;28;20078;-63
2022/11/05 04:40:47;;;;;;;86.15;23.50;;;16.20;43.10;;;;;;5027995;28;19982;-61
2022/11/05 04:43:16;;;;;;;106.60;25.30;;;16.20;44.70;;;;;;5029156;28;20575;-58
2022/11/05 04:45:42;;;;;;;102.85;26.60;;;16.10;44.40;;;;;;5027272;28;20086;-62
2022/11/05 04:48:09;;;;;;;119.57;25.15;;;16.10;43.80;;;;;;5026760;28;20084;-59
2022/11/05 04:50:36;;;;;;;116.13;26.13;;;16.10;44.60;;;;;;5026715;28;20096;-61
2022/11/05 04:53:02;;;;;;;129.02;25.77;;;16.10;45.40;;;;;;5027177;28;20680;-62
2022/11/05 04:55:29;;;;;;;;;;;16.10;45.10;;;;;;5042566;28;20086;-56
2022/11/05 04:57:55;;;;;;;105.88;25.15;;;16.10;44.10;;;;;;5027135;28;20048;-58
2022/11/05 05:00:22;;;;;;;;;;;16.10;45.60;;;;;;5027436;28;20593;-63
2022/11/05 05:02:49;;;;;;;119.45;28.83;;;16.00;45.60;;;;;;5027802;28;20019;-59
2022/11/05 05:05:15;;;;;;;115.90;27.08;;;15.80;44.30;;;;;;5028465;28;20102;-59
2022/11/05 05:07:42;;;;;;;139.80;30.23;;;15.70;45.20;;;;;;5035040;28;20160;-62
2022/11/05 05:10:09;;;;;;;139.00;28.42;;;15.70;45.00;;;;;;5026227;28;20531;-61
2022/11/05 05:12:36;;;;;;;154.57;29.38;;;15.80;44.50;;;;;;5041537;28;20497;-56
2022/11/05 05:15:02;;;;;;;;;;;15.80;44.70;;;;;;5049998;28;20088;-59
2022/11/05 05:17:29;;;;;;;158.17;32.37;;;15.70;44.50;;;;;;5049950;28;20384;-62
2022/11/05 05:23:36;;;;;;;155.50;32.75;;;15.50;44.20;;;;;;5132673;27;20458;-63
2022/11/05 05:26:02;;;;;;;136.90;30.63;;;15.50;45.40;;;;;;5140530;27;20413;-64
2022/11/05 05:28:28;;;;;;;;;;;15.50;45.90;;;;;;5135615;27;20158;-63
2022/11/05 05:30:59;;;;;;;151.00;35.05;;;15.50;46.20;;;;;;5130760;27;20018;-65
2022/11/05 05:33:26;;;;;;;151.75;32.45;;;15.50;46.40;;;;;;5137328;27;20498;-63
2022/11/05 05:35:55;;;;;;;148.68;34.03;;;15.50;46.10;;;;;;5132921;27;20192;-63
2022/11/05 05:38:22;;;;;;;135.68;32.63;;;15.50;46.20;;;;;;5127287;27;20400;-62
2022/11/05 05:40:51;;;;;;;156.63;35.47;;;15.50;47.20;;;;;;5134065;27;20118;-63
2022/11/05 05:43:18;;;;;;;152.60;32.38;;;15.40;48.90;;;;;;5145742;27;20536;-63
2022/11/05 05:45:44;;;;;;;;;;;15.40;48.30;;;;;;5140301;27;20076;-64
2022/11/05 05:48:10;;;;;;;149.73;36.03;;;15.40;48.40;;;;;;5136059;27;19960;-64
2022/11/05 05:50:36;;;;;;;;;;;15.40;47.50;;;;;;5135896;27;20430;-62
2022/11/05 05:53:03;;;;;;;154.55;33.20;;;15.40;46.80;;;;;;5141585;27;19955;-61
2022/11/05 05:55:29;;;;;;;143.55;34.35;;;15.40;48.00;;;;;;5132595;27;20586;-63
2022/11/05 05:57:55;;;;;;;;;;;15.30;48.00;;;;;;5135284;27;20076;-64
2022/11/05 06:00:21;;;;;;;133.40;33.85;;;15.30;47.60;;;;;;5126879;27;19960;-64
2022/11/05 06:02:48;;;;;;;160.20;36.40;;;15.30;48.10;;;;;;5127226;27;20494;-65
2022/11/05 06:05:14;;;;;;;;;;;15.30;48.80;;;;;;5128972;27;20072;-65
2022/11/05 06:07:40;;;;;;;145.15;34.80;;;15.10;48.10;;;;;;5126856;27;19970;-64
2022/11/05 06:10:06;;;;;;;;;;;15.10;48.90;;;;;;5131821;27;20072;-65
2022/11/05 06:12:33;;;;;;;263.55;125.80;;;15.00;48.70;;;;;;5133901;27;19956;-63
2022/11/05 06:14:59;;;;;;;179.57;59.30;;;15.00;47.80;;;;;;5138167;27;20088;-65
2022/11/05 06:17:25;;;;;;;;;;;15.00;48.20;;;;;;5135224;27;20096;-61
2022/11/05 06:19:52;;;;;;;168.63;45.60;;;15.00;47.30;;;;;;5124815;27;20405;-65
2022/11/05 06:22:18;;;;;;;;;;;15.10;47.40;;;;;;5127994;27;20464;-64
2022/11/05 06:24:44;;;;;;;150.05;43.33;;;15.10;47.50;;;;;;5126457;27;19955;-64
2022/11/05 06:27:10;;;;;;;137.15;40.08;;;15.10;48.50;;;;;;5131737;27;20067;-63
2022/11/05 06:29:36;;;;;;;;;;;15.00;48.60;;;;;;5125482;27;20072;-63
2022/11/05 06:32:03;;;;;;;140.52;41.95;;;15.10;48.30;;;;;;5125048;27;19980;-62
2022/11/05 06:34:29;;;;;;;;;;;15.10;48.70;;;;;;5115516;27;20151;-59
2022/11/05 06:36:55;;;;;;;156.20;41.88;;;15.10;48.80;;;;;;5111221;27;20083;-64
2022/11/05 06:39:21;;;;;;;;;;;15.10;48.60;;;;;;5117177;27;20617;-63
2022/11/05 06:41:47;;;;;;;162.95;41.20;;;15.10;48.90;;;;;;5111637;28;19976;-60
2022/11/05 06:44:13;;;;;;;;;;;15.00;49.10;;;;;;5125355;27;20121;-62
2022/11/05 06:46:40;;;;;;;148.25;41.85;;;15.00;48.60;;;;;;5111457;27;19972;-63
2022/11/05 06:49:06;;;;;;;185.38;42.72;;;15.00;48.30;;;;;;5111778;28;20067;-63
2022/11/05 06:51:33;;;;;;;169.18;40.97;;;15.00;47.40;;;;;;5110739;27;20075;-64
2022/11/05 06:53:59;;;;;;;;;;;15.00;46.40;;;;;;5112091;28;20568;-62
2022/11/05 06:56:25;;;;;;;143.02;40.58;;;14.90;46.60;;;;;;5110574;28;19991;-64
2022/11/05 06:58:51;;;;;;;;;;;14.80;48.40;;;;;;5112027;28;20133;-65
2022/11/05 07:01:17;;;;;;;153.75;39.85;;;14.70;48.20;;;;;;5120239;27;19956;-63
2022/11/05 07:03:44;;;;;;;;;;;14.80;47.90;;;;;;5112427;27;20084;-63
2022/11/05 07:06:10;;;;;;;156.27;42.22;;;14.70;48.30;;;;;;5116147;27;20397;-64
2022/11/05 07:08:36;;;;;;;;;;;14.70;48.50;;;;;;5111905;27;20500;-63
2022/11/05 07:11:04;;;;;;;185.45;42.30;;;14.70;48.60;;;;;;5111588;27;20451;-64
2022/11/05 07:13:30;;;;;;;161.32;54.30;;;14.70;48.90;;;;;;5111489;28;20105;-65
2022/11/05 07:15:56;;;;;;;;;;;14.70;49.30;;;;;;5116136;27;20456;-63
2022/11/05 07:18:23;;;;;;;174.70;55.95;;;14.70;49.40;;;;;;5113618;27;20051;-63
2022/11/05 07:20:49;;;;;;;162.88;56.33;;;14.70;49.50;;;;;;5111137;28;20065;-63
2022/11/05 07:23:15;;;;;;;;;;;14.50;49.40;;;;;;5111236;28;20591;-61
2022/11/05 07:25:42;;;;;;;189.95;58.78;;;14.50;50.30;;;;;;5110829;28;20003;-65
2022/11/05 07:28:10;;;;;;;169.63;54.65;;;14.50;50.50;;;;;;5120998;27;20465;-64
2022/11/05 07:30:36;;;;;;;176.70;54.60;;;14.60;50.40;;;;;;5118233;27;20068;-64
2022/11/05 07:33:03;;;;;;;154.07;54.35;;;14.60;49.80;;;;;;5111084;28;20072;-65
2022/11/05 07:35:30;;;;;;;160.65;45.85;;;14.50;49.80;;;;;;5109957;27;20075;-63
2022/11/05 07:37:56;;;;;;;150.10;44.05;;;14.50;50.90;;;;;;5111211;27;20553;-62
2022/11/05 07:40:23;;;;;;;;;;;14.40;50.20;;;;;;5115040;27;20080;-63
2022/11/05 07:42:52;;;;;;;155.50;43.05;;;14.30;49.60;;;;;;5122117;27;20070;-63
2022/11/05 07:45:19;;;;;;;141.30;40.15;;;14.30;49.90;;;;;;5109665;28;20090;-64
2022/11/05 07:47:54;;;;;;;160.00;40.42;;;14.30;50.70;;;;;;5109240;28;20137;-62
2022/11/05 07:50:22;;;;;;;161.75;41.47;;;14.20;50.80;;;;;;5111143;28;20064;-62
2022/11/05 07:52:49;;;;;;;150.77;41.38;;;14.30;51.00;;;;;;5110438;27;20622;-62
2022/11/05 07:55:15;;;;;;;;;;;14.10;50.90;;;;;;5119156;27;20165;-63
2022/11/05 07:57:49;;;;;;;146.32;43.03;;;14.10;51.40;;;;;;5109079;27;19963;-62
2022/11/05 08:00:19;;;;;;;150.90;42.60;;;14.00;51.50;;;;;;5109754;27;20125;-63
2022/11/05 08:02:59;;;;;;;158.32;42.72;;;14.10;50.60;;;;;;5110787;28;20091;-61
2022/11/05 08:05:27;;;;;;;139.65;41.45;;;14.20;50.90;;;;;;5127726;27;20079;-62
2022/11/05 08:07:55;;;;;;;146.57;39.92;;;14.30;49.90;;;;;;5120578;27;20068;-62
2022/11/05 08:10:23;;;;;;;143.55;41.55;;;14.30;49.30;;;;;;5121593;27;20068;-64
2022/11/05 08:12:51;;;;;;;146.25;39.92;;;14.20;49.30;;;;;;5114930;27;20076;-64
2022/11/05 08:15:17;;;;;;;131.73;37.92;;;14.20;49.30;;;;;;5111345;28;20098;-65
2022/11/05 08:17:44;;;;;;;123.13;36.47;;;14.30;49.20;;;;;;5109492;28;20436;-64
2022/11/05 08:20:11;;;;;;;133.23;38.45;;;14.20;49.30;;;;;;5116278;27;20145;-63
2022/11/05 08:22:42;;;;;;;137.48;37.78;;;14.20;49.60;;;;;;5125150;27;20106;-62
2022/11/05 08:25:09;;;;;;;130.55;36.10;;;14.00;49.80;;;;;;5115754;27;20068;-63
2022/11/05 08:27:36;;;;;;;109.70;34.65;;;14.00;49.90;;;;;;5110207;27;20072;-63
2022/11/05 08:30:05;;;;;;;117.82;34.90;;;14.10;49.50;;;;;;5109787;28;20164;-63
2022/11/05 08:32:31;;;;;;;140.95;36.95;;;14.10;49.70;;;;;;5112312;27;20088;-62
2022/11/05 08:34:57;;;;;;;;;;;14.20;50.10;;;;;;5124109;27;20579;-65
2022/11/05 08:37:24;;;;;;;126.45;35.90;;;14.10;49.10;;;;;;5117697;27;19960;-64
2022/11/05 08:39:50;;;;;;;118.05;35.58;;;14.10;49.50;;;;;;5115795;27;20075;-64
2022/11/05 08:42:16;;;;;;;;;;;14.10;49.90;;;;;;5113801;27;20098;-64
2022/11/05 08:44:43;;;;;;;129.15;36.25;;;14.00;49.90;;;;;;5111157;27;19992;-64
2022/11/05 08:47:09;;;;;;;;;;;14.10;51.20;;;;;;5114305;27;20262;-63
2022/11/05 08:49:35;;;;;;;120.65;33.90;;;14.10;50.50;;;;;;5112348;27;20375;-63
2022/11/05 08:52:01;;;;;;;;;;;14.10;50.10;;;;;;5124975;27;20071;-63
2022/11/05 08:54:27;;;;;;;154.73;37.17;;;14.00;50.10;;;;;;5118290;27;20409;-64
2022/11/05 08:56:53;;;;;;;;;;;13.90;49.90;;;;;;5115816;27;20160;-62
2022/11/05 08:59:20;;;;;;;128.60;36.92;;;13.90;49.80;;;;;;5116833;27;19956;-64
2022/11/05 09:01:46;;;;;;;;;;;13.90;50.30;;;;;;5114318;27;20086;-64
2022/11/05 09:04:12;;;;;;;104.88;33.70;;;13.80;50.00;;;;;;5111805;28;19956;-63
2022/11/05 09:06:39;;;;;;;133.98;36.28;;;13.80;51.30;;;;;;5121959;27;20071;-63
2022/11/05 09:09:05;;;;;;;;;;;13.70;50.90;;;;;;5114419;27;20064;-62
2022/11/05 09:11:31;;;;;;;100.53;31.73;;;13.70;50.90;;;;;;5108942;28;19960;-63
2022/11/05 09:13:57;;;;;;;;;;;13.70;51.30;;;;;;5118480;27;20087;-64
2022/11/05 09:16:25;;;;;;;123.68;32.33;;;13.70;51.30;;;;;;5123205;27;20009;-65
2022/11/05 09:18:52;;;;;;;109.32;32.83;;;13.70;51.20;;;;;;5110078;28;20075;-64
2022/11/05 09:21:19;;;;;;;123.35;33.10;;;13.70;51.00;;;;;;5114839;28;20517;-64
2022/11/05 09:23:46;;;;;;;109.57;32.42;;;13.70;51.60;;;;;;5109791;28;20104;-65
2022/11/05 09:26:13;;;;;;;114.95;34.10;;;13.70;51.20;;;;;;5116263;28;20060;-62
2022/11/05 09:28:42;;;;;;;118.70;34.10;;;13.70;51.30;;;;;;5109486;28;20133;-65
2022/11/05 09:31:10;;;;;;;115.13;34.88;;;13.70;50.90;;;;;;5120377;27;20060;-64
2022/11/05 09:33:38;;;;;;;128.43;35.88;;;13.70;50.60;;;;;;5108029;28;20125;-65
2022/11/05 09:36:05;;;;;;;119.15;33.15;;;13.80;51.00;;;;;;5118846;28;20150;-66
2022/11/05 09:38:33;;;;;;;131.52;34.92;;;13.80;51.40;;;;;;5115889;28;20123;-63
2022/11/05 09:41:11;;;;;;;119.85;34.88;;;13.70;51.30;;;;;;5109433;28;20564;-65
2022/11/05 09:43:50;;;;;;;121.25;36.60;;;13.70;51.30;;;;;;5119283;27;20088;-65
2022/11/05 09:46:24;;;;;;;135.60;36.45;;;13.60;52.60;;;;;;5122431;28;20083;-63
2022/11/05 09:49:23;;;;;;;148.63;52.40;;;13.60;52.40;;;;;;5121787;27;20068;-64
2022/11/05 09:51:53;;;;;;;143.40;38.88;;;13.50;52.60;;;;;;5111282;28;20080;-61
2022/11/05 09:54:27;;;;;;;136.07;38.97;;;13.60;53.10;;;;;;5122578;28;20069;-63
2022/11/05 09:56:54;;;;;;;143.38;38.97;;;13.70;52.40;;;;;;5121600;28;20543;-64
2022/11/05 09:59:43;;;;;;;151.70;40.35;;;13.70;51.90;;;;;;5113078;27;20152;-61
2022/11/05 10:02:29;;;;;;;142.65;40.88;;;13.70;51.80;;;;;;5115868;28;20089;-62
2022/11/05 10:05:05;;;;;;;145.80;40.60;;;13.80;52.40;;;;;;5118039;27;20107;-64
2022/11/05 10:07:40;;;;;;;131.53;39.53;;;13.80;52.10;;;;;;5115234;28;20064;-64
2022/11/05 10:10:11;;;;;;;118.60;40.10;;;13.70;52.40;;;;;;5122263;27;20198;-65
2022/11/05 10:12:53;;;;;;;138.15;40.97;;;13.60;53.90;;;;;;5117540;27;20088;-64
2022/11/05 10:15:29;;;;;;;147.60;41.53;;;13.40;53.40;;;;;;5122152;27;20088;-63
2022/11/05 10:18:11;;;;;;;160.98;40.13;;;13.50;54.00;;;;;;5118851;27;20094;-63
2022/11/05 10:20:39;;;;;;;139.95;42.65;;;13.50;53.00;;;;;;5121277;27;20076;-65
2022/11/05 10:23:08;;;;;;;143.23;40.50;;;13.50;53.50;;;;;;5125365;27;20111;-65
2022/11/05 10:25:42;;;;;;;141.73;43.70;;;13.60;53.30;;;;;;5126474;27;20581;-66
2022/11/05 10:28:18;;;;;;;143.98;43.92;;;13.60;53.10;;;;;;5122902;27;20071;-65
2022/11/05 10:30:49;;;;;;;134.10;42.80;;;13.60;53.90;;;;;;5120098;27;20140;-64
2022/11/05 10:33:25;;;;;;;152.30;45.00;;;13.50;54.30;;;;;;5125446;27;20457;-66
2022/11/05 10:35:58;;;;;;;130.20;45.93;;;13.50;53.90;;;;;;5120709;27;20164;-65
2022/11/05 10:38:24;;;;;;;161.80;44.90;;;13.50;54.10;;;;;;5128988;27;20164;-66
2022/11/05 10:40:50;;;;;;;;;;;13.50;54.00;;;;;;5123771;27;20075;-65
2022/11/05 10:43:23;;;;;;;135.75;44.13;;;13.50;53.50;;;;;;5115787;27;19979;-66
2022/11/05 10:45:53;;;;;;;153.45;47.90;;;13.50;53.60;;;;;;5124235;27;20064;-64
2022/11/05 10:48:43;;;;;;;145.63;44.78;;;13.50;54.10;;;;;;5110519;27;20071;-65
2022/11/05 10:51:10;;;;;;;181.23;48.75;;;13.50;54.00;;;;;;5110824;27;20548;-67
2022/11/05 10:53:38;;;;;;;139.38;48.05;;;13.50;53.70;;;;;;5124866;27;20128;-65
2022/11/05 10:56:24;;;;;;;149.13;47.28;;;13.40;53.70;;;;;;5114537;27;20230;-66
2022/11/05 10:58:56;;;;;;;133.43;44.30;;;13.40;53.90;;;;;;5110884;28;20532;-65
2022/11/05 11:01:24;;;;;;;141.98;47.03;;;13.30;54.70;;;;;;5117493;27;20095;-63
2022/11/05 11:04:04;;;;;;;161.63;46.22;;;13.30;54.80;;;;;;5122946;27;20064;-63
2022/11/05 11:06:37;;;;;;;140.50;46.10;;;13.30;54.20;;;;;;5125485;27;20072;-65
2022/11/05 11:09:19;;;;;;;137.95;44.22;;;13.20;55.10;;;;;;5126628;27;20174;-65
2022/11/05 11:11:52;;;;;;;145.18;44.65;;;13.30;54.30;;;;;;5120838;27;20151;-64
2022/11/05 11:14:21;;;;;;;145.93;45.13;;;13.30;54.10;;;;;;5112640;27;20140;-65
2022/11/05 11:16:50;;;;;;;118.38;44.38;;;13.30;54.60;;;;;;5112432;27;20080;-65
2022/11/05 11:19:33;;;;;;;148.07;43.53;;;13.30;55.50;;;;;;5116575;27;20069;-63
2022/11/05 11:22:05;;;;;;;142.55;44.95;;;13.30;54.90;;;;;;5110499;27;20127;-63
2022/11/05 11:24:38;;;;;;;148.45;46.00;;;13.20;54.80;;;;;;5121471;27;20071;-65
2022/11/05 11:27:10;;;;;;;133.43;44.08;;;13.20;54.80;;;;;;5114348;27;20068;-65
2022/11/05 11:29:40;;;;;;;150.80;44.47;;;13.20;54.90;;;;;;5110373;27;20068;-65
2022/11/05 11:32:20;;;;;;;119.95;40.80;;;13.20;55.00;;;;;;5110968;28;20171;-64
2022/11/05 11:34:51;;;;;;;138.80;44.47;;;13.20;55.10;;;;;;5124013;27;20076;-65
2022/11/05 11:37:30;;;;;;;121.00;42.58;;;13.10;55.20;;;;;;5117887;27;20068;-65
2022/11/05 11:40:03;;;;;;;142.27;42.00;;;13.10;55.40;;;;;;5109953;27;20087;-64
2022/11/05 11:42:32;;;;;;;140.85;44.67;;;13.10;55.90;;;;;;5109649;28;20591;-65
2022/11/05 11:45:04;;;;;;;152.18;43.95;;;13.20;56.20;;;;;;5119864;27;20075;-63
2022/11/05 11:47:32;;;;;;;146.48;43.90;;;13.20;56.00;;;;;;5112211;28;20109;-66
2022/11/05 11:50:00;;;;;;;139.27;43.03;;;13.10;55.80;;;;;;5116660;27;20094;-64
2022/11/05 11:52:35;;;;;;;139.35;45.53;;;13.10;56.20;;;;;;5123287;27;21093;-65
2022/11/05 11:55:18;;;;;;;144.55;45.67;;;13.10;56.50;;;;;;5118605;27;20082;-64
2022/11/05 11:57:48;;;;;;;138.93;43.30;;;13.10;55.90;;;;;;5111019;27;20068;-65
2022/11/05 12:00:16;;;;;;;142.20;43.70;;;13.10;56.10;;;;;;5118686;27;20072;-65
2022/11/05 12:03:03;;;;;;;126.82;42.55;;;13.00;55.80;;;;;;5116160;27;20088;-65
2022/11/05 12:05:42;;;;;;;129.30;41.47;;;13.00;56.20;;;;;;5120304;27;20064;-66
2022/11/05 12:08:30;;;;;;;125.10;42.75;;;13.00;56.30;;;;;;5120763;27;20095;-65
2022/11/05 12:11:35;;;;;;;133.38;46.47;;;12.90;56.40;;;;;;5110563;27;20072;-64
2022/11/05 12:14:35;;;;;;;136.55;48.85;;;12.70;56.60;;;;;;5094165;28;20127;-65
2022/11/05 12:17:31;;;;;;;155.18;51.40;;;12.70;56.70;;;;;;5071312;28;20113;-65
2022/11/05 12:19:57;;;;;;;136.73;46.40;;;12.70;57.30;;;;;;5091340;28;20433;-64
2022/11/05 12:22:46;;;;;;;145.32;47.22;;;12.70;56.80;;;;;;5088910;28;20113;-66
2022/11/05 12:25:25;;;;;;;121.35;45.72;;;12.80;57.70;;;;;;5100064;28;20444;-65
2022/11/05 12:28:06;;;;;;;115.43;44.47;;;12.80;56.90;;;;;;5097077;28;20088;-64
2022/11/05 12:31:09;;;;;;;118.45;41.13;;;12.70;57.00;;;;;;5095791;28;20163;-66
2022/11/05 12:33:50;;;;;;;99.80;34.65;;;12.50;56.80;;;;;;5052392;28;20141;-64
2022/11/05 12:36:40;;;;;;;113.63;36.83;;;12.60;55.50;;;;;;5096349;28;20083;-65
2022/11/05 12:39:24;;;;;;;96.82;33.72;;;12.60;56.40;;;;;;5094432;28;20214;-64
2022/11/05 12:42:14;;;;;;;130.93;61.63;;;12.60;55.60;;;;;;5090840;28;20571;-65
2022/11/05 12:44:56;;;;;;;138.93;64.25;;;12.60;55.10;;;;;;5091889;28;20076;-63
2022/11/05 12:47:48;;;;;;;177.38;86.95;;;12.50;56.20;;;;;;5091990;28;20091;-64
2022/11/05 12:50:40;;;;;;;204.85;94.50;;;12.40;55.90;;;;;;5108020;27;20076;-65
2022/11/05 12:53:12;;;;;;;166.27;81.15;;;12.50;55.80;;;;;;5115982;27;20612;-67
2022/11/05 12:55:48;;;;;;;136.73;59.25;;;12.50;55.90;;;;;;5119815;27;20151;-65
2022/11/05 12:58:34;;;;;;;184.75;103.72;;;12.50;55.70;;;;;;5114805;27;20099;-63
2022/11/05 13:01:14;;;;;;;244.35;147.35;;;12.50;56.20;;;;;;5122208;27;20084;-64
2022/11/05 13:03:54;;;;;;;201.82;107.95;;;12.50;56.60;;;;;;5127092;27;20095;-63
2022/11/05 13:06:40;;;;;;;178.80;84.63;;;12.40;56.00;;;;;;5117056;27;20136;-64
2022/11/05 13:09:17;;;;;;;172.60;81.43;;;12.40;56.10;;;;;;5125359;27;20171;-64
2022/11/05 13:11:55;;;;;;;173.10;70.25;;;12.30;56.60;;;;;;5116920;27;20071;-65
2022/11/05 13:14:55;;;;;;;189.65;81.70;;;12.20;57.10;;;;;;5122170;27;20592;-65
2022/11/05 13:17:31;;;;;;;200.95;89.18;;;12.20;57.10;;;;;;5119264;27;20075;-66
2022/11/05 13:20:04;;;;;;;201.25;88.70;;;12.20;57.70;;;;;;5123509;27;20409;-66
2022/11/05 13:22:33;;;;;;;206.82;82.18;;;12.30;58.30;;;;;;5116611;28;20104;-64
2022/11/05 13:25:17;;;;;;;161.35;69.57;;;12.30;58.30;;;;;;5118446;28;20143;-65
2022/11/05 13:28:22;;;;;;;170.52;64.45;;;12.30;58.80;;;;;;5114901;28;20060;-66
2022/11/05 13:30:56;;;;;;;173.98;63.15;;;12.30;57.70;;;;;;5106490;28;20091;-64
2022/11/05 13:33:35;;;;;;;175.50;65.00;;;12.20;58.00;;;;;;5117780;28;20083;-65
2022/11/05 13:39:34;;;;;;;180.98;72.90;;;12.30;58.20;;;;;;5122762;28;20121;-65
2022/11/05 13:42:18;;;;;;;187.25;67.95;;;12.30;57.80;;;;;;5117182;28;20527;-65
2022/11/05 13:45:09;;;;;;;188.70;60.60;;;12.20;58.30;;;;;;5122411;27;20067;-65
2022/11/05 13:48:00;;;;;;;188.00;63.10;;;12.10;58.40;;;;;;5118245;27;20212;-65
2022/11/05 13:50:29;;;;;;;168.90;58.83;;;12.00;58.60;;;;;;5116596;27;20076;-63
2022/11/05 13:53:19;;;;;;;171.07;62.08;;;12.00;59.00;;;;;;5126275;27;20421;-65
2022/11/05 13:56:12;;;;;;;192.13;68.22;;;12.00;59.80;;;;;;5117511;27;20472;-65
2022/11/05 13:59:22;;;;;;;184.13;63.40;;;12.00;59.00;;;;;;5115733;27;20068;-63
2022/11/05 14:02:02;;;;;;;178.70;58.30;;;11.90;58.70;;;;;;5072968;27;20096;-64
2022/11/05 14:04:39;;;;;;;189.38;60.35;;;11.90;58.30;;;;;;5118220;27;20171;-64
2022/11/05 14:07:22;;;;;;;192.40;61.33;;;11.90;58.50;;;;;;5124370;27;20098;-64
2022/11/05 14:09:59;;;;;;;193.07;59.03;;;11.80;58.50;;;;;;5125567;27;20103;-65
2022/11/05 14:12:30;;;;;;;180.35;59.60;;;11.80;58.60;;;;;;5127177;27;20528;-64
2022/11/05 14:15:08;;;;;;;175.10;57.75;;;11.90;58.40;;;;;;5121259;27;20186;-63
2022/11/05 14:17:56;;;;;;;188.52;57.35;;;11.90;57.70;;;;;;5128279;27;20083;-64
2022/11/05 14:20:38;;;;;;;203.60;55.20;;;11.80;57.40;;;;;;5118597;27;20068;-66
2022/11/05 14:23:23;;;;;;;190.95;52.25;;;11.90;57.00;;;;;;5121598;27;20114;-63
2022/11/05 14:26:14;;;;;;;186.95;51.15;;;12.00;56.50;;;;;;5126464;27;20078;-65
2022/11/05 14:28:44;;;;;;;186.40;49.83;;;12.00;56.70;;;;;;5126530;27;20068;-64
2022/11/05 14:31:21;;;;;;;194.23;49.10;;;12.00;56.50;;;;;;5124259;27;20540;-65
2022/11/05 14:34:05;;;;;;;;;;;12.10;56.60;;;;;;5118743;27;20170;-60
2022/11/05 14:36:35;;;;;;;186.50;47.60;;;12.10;55.30;;;;;;5122461;27;19956;-64
2022/11/05 14:39:24;;;;;;;219.38;47.65;;;12.10;54.70;;;;;;5114362;27;20116;-66